createdAt,value
2023-12-17T00:00:54.429Z,-2.00
2023-12-17T00:03:56.988Z,-2.09
2023-12-17T00:07:00.102Z,-2.01
2023-12-17T00:10:03.010Z,-1.44
2023-12-17T00:13:05.832Z,-1.66
2023-12-17T00:16:08.756Z,-1.86
2023-12-17T00:19:11.265Z,-1.68
2023-12-17T00:22:13.780Z,-1.79
2023-12-17T00:25:16.193Z,-1.44
2023-12-17T00:28:18.754Z,-1.31
2023-12-17T00:31:21.216Z,-1.40
2023-12-17T00:34:23.746Z,-1.92
2023-12-17T00:37:26.248Z,-2.09
2023-12-17T00:40:28.687Z,-2.09
2023-12-17T00:43:31.216Z,-1.97
2023-12-17T00:46:33.593Z,-1.82
2023-12-17T00:49:36.082Z,-1.48
2023-12-17T00:52:38.592Z,-1.28
2023-12-17T00:55:40.985Z,-0.97
2023-12-17T00:58:43.368Z,-0.77
2023-12-17T01:01:45.781Z,-0.70
2023-12-17T01:04:48.234Z,-0.68
2023-12-17T01:07:51.462Z,-0.69
2023-12-17T01:10:53.867Z,-0.65
2023-12-17T01:13:56.358Z,-1.02
2023-12-17T01:16:59.276Z,-1.38
2023-12-17T01:20:01.869Z,-1.50
2023-12-17T01:23:04.445Z,-1.63
2023-12-17T01:26:07.004Z,-1.74
2023-12-17T01:29:09.382Z,-1.74
2023-12-17T01:32:11.776Z,-1.76
2023-12-17T01:35:14.228Z,-1.97
2023-12-17T01:38:16.640Z,-2.04
2023-12-17T01:41:19.079Z,-2.09
2023-12-17T01:44:21.584Z,-2.12
2023-12-17T01:47:24.580Z,-1.74
2023-12-17T01:50:28.105Z,-1.59
2023-12-17T01:53:30.916Z,-1.68
2023-12-17T01:56:33.630Z,-1.36
2023-12-17T01:59:37.155Z,-1.21
2023-12-17T02:02:40.557Z,-0.81
2023-12-17T02:05:46.327Z,-0.77
2023-12-17T02:08:49.025Z,-0.56
2023-12-17T02:11:51.473Z,-0.55
2023-12-17T02:14:55.101Z,-1.12
2023-12-17T02:17:57.978Z,-1.37
2023-12-17T02:21:01.805Z,-1.46
2023-12-17T02:24:06.543Z,-1.54
2023-12-17T02:27:11.139Z,-1.56
2023-12-17T02:30:13.882Z,-1.73
2023-12-17T02:33:16.564Z,-2.04
2023-12-17T02:36:19.048Z,-1.89
2023-12-17T02:39:21.666Z,-1.83
2023-12-17T02:42:24.166Z,-1.79
2023-12-17T02:45:26.719Z,-1.79
2023-12-17T02:48:29.428Z,-1.87
2023-12-17T02:51:32.747Z,-1.63
2023-12-17T02:54:35.258Z,-1.58
2023-12-17T02:57:38.226Z,-1.49
2023-12-17T03:00:40.781Z,-1.57
2023-12-17T03:03:43.248Z,-1.84
2023-12-17T03:06:45.975Z,-1.53
2023-12-17T03:09:49.321Z,-1.29
2023-12-17T03:12:51.852Z,-1.28
2023-12-17T03:15:54.257Z,-1.20
2023-12-17T03:18:57.345Z,-1.24
2023-12-17T03:21:59.825Z,-1.28
2023-12-17T03:25:02.590Z,-1.17
2023-12-17T03:28:05.131Z,-1.28
2023-12-17T03:31:07.654Z,-1.22
2023-12-17T03:34:10.230Z,-1.18
2023-12-17T03:37:12.758Z,-1.19
2023-12-17T03:40:15.536Z,-1.23
2023-12-17T03:43:17.961Z,-1.23
2023-12-17T03:46:21.436Z,-1.19
2023-12-17T03:49:23.995Z,-1.30
2023-12-17T03:52:26.558Z,-1.26
2023-12-17T03:55:28.953Z,-1.26
2023-12-17T03:58:32.138Z,-1.31
2023-12-17T04:01:34.508Z,-1.53
2023-12-17T04:04:37.095Z,-1.29
2023-12-17T04:07:39.817Z,-1.33
2023-12-17T04:10:42.437Z,-1.32
2023-12-17T04:13:44.858Z,-1.24
2023-12-17T04:16:47.301Z,-1.32
2023-12-17T04:19:49.740Z,-1.32
2023-12-17T04:22:52.128Z,-1.59
2023-12-17T04:25:54.605Z,-1.38
2023-12-17T04:28:57.041Z,-1.49
2023-12-17T04:31:59.478Z,-1.54
2023-12-17T04:35:01.900Z,-1.67
2023-12-17T04:38:04.378Z,-1.67
2023-12-17T04:41:06.985Z,-1.63
2023-12-17T04:44:09.506Z,-1.62
2023-12-17T04:47:12.221Z,-1.73
2023-12-17T04:50:14.670Z,-1.80
2023-12-17T04:53:17.092Z,-1.79
2023-12-17T04:56:22.145Z,-1.72
2023-12-17T04:59:25.382Z,-1.76
2023-12-17T05:02:28.062Z,-1.73
2023-12-17T05:05:30.533Z,-1.77
2023-12-17T05:08:33.000Z,-1.80
2023-12-17T05:11:35.717Z,-1.78
2023-12-17T05:14:38.155Z,-1.78
2023-12-17T05:17:40.997Z,-1.73
2023-12-17T05:20:45.969Z,-1.54
2023-12-17T05:23:48.520Z,-1.55
2023-12-17T05:26:51.026Z,-1.30
2023-12-17T05:29:53.483Z,-1.29
2023-12-17T05:32:55.947Z,-1.17
2023-12-17T05:35:58.443Z,-1.06
2023-12-17T05:39:00.888Z,-1.37
2023-12-17T05:42:03.492Z,-1.19
2023-12-17T05:45:06.616Z,-0.94
2023-12-17T05:48:10.297Z,-0.96
2023-12-17T05:51:12.795Z,-0.97
2023-12-17T05:54:15.283Z,-0.92
2023-12-17T05:57:17.927Z,-1.04
2023-12-17T06:00:20.649Z,-0.89
2023-12-17T06:03:23.226Z,-0.66
2023-12-17T06:06:27.317Z,-0.76
2023-12-17T06:09:30.801Z,-0.91
2023-12-17T06:12:33.401Z,-0.94
2023-12-17T06:15:35.908Z,-1.05
2023-12-17T06:18:39.969Z,-1.12
2023-12-17T06:21:42.585Z,-1.06
2023-12-17T06:24:45.043Z,-0.99
2023-12-17T06:27:47.475Z,-0.93
2023-12-17T06:30:50.098Z,-0.94
2023-12-17T06:33:56.070Z,-0.77
2023-12-17T06:36:59.152Z,-0.61
2023-12-17T06:40:01.547Z,-0.49
2023-12-17T06:43:03.946Z,-0.50
2023-12-17T06:46:08.211Z,-0.51
2023-12-17T06:49:11.578Z,-0.18
2023-12-17T06:52:14.201Z,-0.20
2023-12-17T06:55:16.722Z,-0.08
2023-12-17T06:58:19.272Z,-0.07
2023-12-17T07:01:21.702Z,-0.04
2023-12-17T07:04:24.270Z,0.10
2023-12-17T07:07:26.725Z,0.16
2023-12-17T07:10:29.143Z,0.34
2023-12-17T07:13:31.601Z,0.33
2023-12-17T07:16:33.982Z,0.24
2023-12-17T07:19:37.004Z,0.09
2023-12-17T07:22:39.979Z,0.42
2023-12-17T07:25:42.379Z,0.71
2023-12-17T07:28:44.774Z,0.58
2023-12-17T07:31:47.157Z,0.94
2023-12-17T07:34:49.525Z,0.98
2023-12-17T07:37:51.952Z,0.91
2023-12-17T07:40:55.197Z,0.88
2023-12-17T07:43:57.854Z,0.96
2023-12-17T07:47:00.242Z,0.94
2023-12-17T07:50:02.797Z,1.01
2023-12-17T07:53:05.499Z,0.83
2023-12-17T07:56:10.914Z,0.87
2023-12-17T07:59:14.493Z,1.02
2023-12-17T08:02:17.017Z,0.95
2023-12-17T08:05:19.943Z,0.97
2023-12-17T08:08:22.381Z,1.10
2023-12-17T08:11:24.836Z,1.28
2023-12-17T08:14:27.387Z,1.37
2023-12-17T08:17:29.904Z,1.52
2023-12-17T08:20:33.523Z,1.74
2023-12-17T08:23:37.543Z,1.53
2023-12-17T08:26:41.789Z,1.56
2023-12-17T08:29:49.072Z,1.45
2023-12-17T08:32:52.651Z,1.48
2023-12-17T08:35:55.295Z,1.61
2023-12-17T08:38:57.826Z,1.63
2023-12-17T08:42:00.379Z,1.69
2023-12-17T08:45:02.928Z,1.63
2023-12-17T08:48:06.541Z,1.67
2023-12-17T08:51:09.214Z,1.74
2023-12-17T08:54:11.978Z,1.82
2023-12-17T08:57:14.447Z,1.90
2023-12-17T09:00:20.197Z,2.08
2023-12-17T09:03:22.800Z,2.28
2023-12-17T09:06:25.301Z,2.12
2023-12-17T09:09:27.810Z,2.41
2023-12-17T09:12:30.461Z,2.45
2023-12-17T09:15:33.012Z,2.58
2023-12-17T09:18:35.583Z,2.64
2023-12-17T09:21:38.052Z,2.46
2023-12-17T09:24:41.513Z,2.31
2023-12-17T09:27:44.083Z,2.27
2023-12-17T09:30:46.594Z,2.18
2023-12-17T09:33:49.075Z,2.27
2023-12-17T09:36:51.568Z,2.40
2023-12-17T09:39:54.453Z,2.38
2023-12-17T09:42:57.251Z,2.38
2023-12-17T09:45:59.932Z,2.61
2023-12-17T09:49:03.321Z,2.46
2023-12-17T09:52:13.832Z,2.75
2023-12-17T09:55:16.398Z,2.57
2023-12-17T09:58:20.778Z,2.40
2023-12-17T10:01:23.869Z,2.52
2023-12-17T10:04:27.302Z,2.55
2023-12-17T10:07:31.272Z,2.57
2023-12-17T10:10:33.844Z,2.85
2023-12-17T10:13:36.382Z,2.77
2023-12-17T10:16:38.797Z,2.83
2023-12-17T10:19:42.007Z,2.82
2023-12-17T10:22:59.320Z,2.94
2023-12-17T10:26:02.372Z,2.47
2023-12-17T10:29:04.941Z,3.04
2023-12-17T10:32:09.836Z,3.01
2023-12-17T10:35:13.165Z,2.75
2023-12-17T10:38:16.022Z,2.67
2023-12-17T10:41:20.782Z,2.69
2023-12-17T10:44:23.575Z,2.73
2023-12-17T10:47:26.977Z,3.02
2023-12-17T10:50:29.946Z,2.91
2023-12-17T10:53:32.427Z,2.81
2023-12-17T10:57:01.862Z,3.11
2023-12-17T11:00:06.259Z,3.17
2023-12-17T11:03:10.844Z,3.03
2023-12-17T11:06:13.643Z,3.06
2023-12-17T11:09:19.545Z,2.83
2023-12-17T11:12:22.076Z,2.54
2023-12-17T11:15:24.923Z,2.61
2023-12-17T11:19:05.909Z,2.49
2023-12-17T11:22:08.955Z,2.56
2023-12-17T11:25:12.693Z,2.55
2023-12-17T11:28:26.355Z,2.54
2023-12-17T11:31:28.934Z,2.35
2023-12-17T11:34:32.589Z,2.49
2023-12-17T11:37:35.831Z,2.54
2023-12-17T11:40:39.053Z,2.35
2023-12-17T11:43:41.450Z,2.35
2023-12-17T11:46:47.952Z,2.29
2023-12-17T11:49:50.841Z,2.29
2023-12-17T11:53:02.490Z,2.19
2023-12-17T11:56:06.790Z,2.28
2023-12-17T11:59:09.594Z,2.29
2023-12-17T12:02:16.518Z,2.25
2023-12-17T12:05:19.578Z,2.40
2023-12-17T12:08:22.613Z,2.33
2023-12-17T12:11:32.759Z,2.35
2023-12-17T12:14:35.223Z,2.30
2023-12-17T12:17:42.616Z,2.33
2023-12-17T12:20:45.556Z,2.24
2023-12-17T12:23:53.591Z,2.11
2023-12-17T12:26:56.331Z,2.07
2023-12-17T12:29:58.962Z,2.06
2023-12-17T12:33:12.007Z,2.21
2023-12-17T12:36:15.098Z,2.31
2023-12-17T12:39:20.682Z,2.35
2023-12-17T12:42:23.612Z,2.28
2023-12-17T12:45:26.042Z,2.09
2023-12-17T12:48:29.096Z,2.10
2023-12-17T12:51:32.864Z,2.16
2023-12-17T12:54:36.505Z,2.18
2023-12-17T12:57:39.210Z,2.15
2023-12-17T13:00:49.019Z,2.12
2023-12-17T13:03:51.727Z,2.30
2023-12-17T13:06:54.218Z,2.24
2023-12-17T13:10:01.406Z,2.17
2023-12-17T13:13:10.749Z,2.23
2023-12-17T13:16:13.209Z,2.22
2023-12-17T13:19:16.281Z,2.19
2023-12-17T13:22:19.272Z,2.21
2023-12-17T13:25:21.809Z,2.27
2023-12-17T13:28:26.646Z,2.34
2023-12-17T13:31:29.094Z,2.36
2023-12-17T13:34:31.488Z,2.39
2023-12-17T13:37:33.899Z,2.44
2023-12-17T13:40:36.400Z,2.15
2023-12-17T13:43:39.714Z,2.28
2023-12-17T13:46:42.224Z,2.22
2023-12-17T13:49:45.342Z,2.22
2023-12-17T13:52:47.977Z,2.37
2023-12-17T13:55:50.662Z,2.36
2023-12-17T13:58:53.143Z,2.33
2023-12-17T14:01:55.643Z,2.31
2023-12-17T14:04:58.096Z,2.34
2023-12-17T14:08:00.762Z,2.30
2023-12-17T14:11:03.334Z,2.20
2023-12-17T14:14:07.373Z,2.19
2023-12-17T14:17:09.939Z,2.23
2023-12-17T14:20:17.053Z,2.14
2023-12-17T14:23:23.149Z,2.30
2023-12-17T14:26:25.660Z,2.56
2023-12-17T14:29:28.038Z,2.07
2023-12-17T14:32:30.519Z,2.06
2023-12-17T14:35:33.051Z,2.20
2023-12-17T14:38:37.034Z,2.38
2023-12-17T14:41:40.034Z,2.25
2023-12-17T14:44:42.491Z,2.09
2023-12-17T14:47:45.521Z,2.11
2023-12-17T14:50:48.515Z,2.06
2023-12-17T14:53:55.976Z,2.09
2023-12-17T14:57:01.551Z,2.08
2023-12-17T15:00:05.430Z,1.99
2023-12-17T15:03:10.525Z,1.77
2023-12-17T15:06:13.195Z,2.02
2023-12-17T15:09:24.254Z,1.96
2023-12-17T15:12:27.040Z,2.00
2023-12-17T15:15:29.653Z,1.87
2023-12-17T15:18:32.202Z,2.01
2023-12-17T15:21:34.707Z,1.95
2023-12-17T15:24:37.260Z,1.96
2023-12-17T15:27:39.792Z,1.92
2023-12-17T15:30:42.429Z,2.01
2023-12-17T15:33:45.142Z,2.14
2023-12-17T15:36:47.705Z,2.01
2023-12-17T15:39:50.149Z,1.96
2023-12-17T15:42:52.728Z,2.08
2023-12-17T15:45:55.156Z,2.01
2023-12-17T15:48:58.041Z,2.05
2023-12-17T15:52:00.560Z,1.98
2023-12-17T15:55:03.097Z,1.97
2023-12-17T15:58:05.552Z,2.04
2023-12-17T16:01:08.072Z,2.01
2023-12-17T16:04:10.785Z,2.05
2023-12-17T16:07:13.796Z,2.09
2023-12-17T16:10:16.307Z,1.94
2023-12-17T16:13:18.792Z,1.96
2023-12-17T16:16:23.085Z,2.16
2023-12-17T16:19:25.600Z,2.17
2023-12-17T16:22:29.884Z,2.29
2023-12-17T16:25:32.349Z,2.12
2023-12-17T16:28:34.767Z,2.11
2023-12-17T16:31:37.599Z,2.19
2023-12-17T16:34:40.184Z,2.19
2023-12-17T16:37:43.428Z,2.41
2023-12-17T16:40:46.389Z,2.32
2023-12-17T16:43:50.363Z,2.27
2023-12-17T16:46:53.276Z,2.25
2023-12-17T16:49:56.962Z,2.21
2023-12-17T16:52:59.413Z,2.30
2023-12-17T16:56:06.335Z,2.19
2023-12-17T16:59:08.864Z,2.25
2023-12-17T17:02:11.661Z,2.33
2023-12-17T17:05:14.455Z,2.18
2023-12-17T17:08:16.967Z,2.39
2023-12-17T17:11:19.404Z,2.40
2023-12-17T17:14:21.852Z,2.38
2023-12-17T17:17:24.509Z,2.32
2023-12-17T17:20:27.043Z,2.51
2023-12-17T17:23:29.507Z,2.45
2023-12-17T17:26:33.127Z,2.42
2023-12-17T17:29:36.414Z,2.47
2023-12-17T17:32:39.211Z,2.25
2023-12-17T17:35:41.834Z,2.37
2023-12-17T17:38:44.414Z,2.24
2023-12-17T17:41:49.713Z,2.39
2023-12-17T17:44:52.200Z,2.33
2023-12-17T17:47:54.665Z,2.41
2023-12-17T17:51:02.857Z,2.21
2023-12-17T17:54:05.497Z,2.36
2023-12-17T17:57:08.506Z,2.31
2023-12-17T18:00:11.662Z,2.37
2023-12-17T18:03:14.343Z,2.30
2023-12-17T18:06:17.134Z,2.41
2023-12-17T18:09:20.714Z,2.34
2023-12-17T18:12:23.234Z,2.38
2023-12-17T18:15:27.696Z,2.28
2023-12-17T18:18:30.692Z,2.24
2023-12-17T18:21:39.127Z,2.20
2023-12-17T18:24:41.800Z,2.20
2023-12-17T18:27:44.760Z,2.38
2023-12-17T18:30:49.087Z,2.32
2023-12-17T18:33:51.900Z,2.21
2023-12-17T18:36:55.245Z,2.28
2023-12-17T18:39:58.576Z,2.41
2023-12-17T18:43:01.185Z,2.35
2023-12-17T18:46:03.925Z,2.52
2023-12-17T18:49:07.179Z,2.31
2023-12-17T18:52:09.804Z,2.45
2023-12-17T18:55:12.318Z,2.28
2023-12-17T18:58:15.048Z,2.30
2023-12-17T19:01:17.738Z,2.36
2023-12-17T19:04:22.251Z,2.36
2023-12-17T19:07:25.053Z,2.37
2023-12-17T19:10:27.581Z,2.32
2023-12-17T19:13:32.433Z,2.16
2023-12-17T19:16:36.637Z,2.19
2023-12-17T19:19:39.750Z,2.40
2023-12-17T19:22:42.908Z,2.26
2023-12-17T19:25:46.009Z,2.33
2023-12-17T19:28:48.718Z,2.31
2023-12-17T19:31:51.297Z,2.33
2023-12-17T19:34:54.062Z,2.32
2023-12-17T19:37:57.407Z,2.36
2023-12-17T19:40:59.817Z,2.35
2023-12-17T19:44:02.387Z,2.48
2023-12-17T19:47:07.679Z,2.42
2023-12-17T19:50:10.351Z,2.49
2023-12-17T19:53:14.594Z,2.41
2023-12-17T19:56:17.877Z,2.55
2023-12-17T19:59:20.512Z,2.41
2023-12-17T20:02:22.988Z,2.52
2023-12-17T20:05:25.695Z,2.52
2023-12-17T20:08:31.647Z,2.52
2023-12-17T20:11:34.740Z,2.34
2023-12-17T20:14:37.229Z,2.33
2023-12-17T20:17:41.086Z,2.27
2023-12-17T20:20:44.729Z,2.46
2023-12-17T20:23:48.385Z,2.46
2023-12-17T20:26:50.855Z,2.33
2023-12-17T20:29:54.998Z,2.33
2023-12-17T20:32:57.573Z,2.40
2023-12-17T20:36:00.078Z,2.31
2023-12-17T20:39:02.628Z,2.39
2023-12-17T20:42:07.995Z,2.33
2023-12-17T20:45:11.390Z,2.39
2023-12-17T20:48:17.310Z,2.42
2023-12-17T20:51:19.876Z,2.41
2023-12-17T20:54:22.369Z,2.31
2023-12-17T20:57:27.054Z,2.42
2023-12-17T21:00:30.593Z,2.34
2023-12-17T21:03:33.113Z,2.35
2023-12-17T21:06:35.653Z,2.25
2023-12-17T21:09:38.187Z,2.38
2023-12-17T21:12:42.155Z,2.23
2023-12-17T21:15:44.833Z,2.31
2023-12-17T21:18:48.442Z,2.36
2023-12-17T21:21:52.378Z,2.17
2023-12-17T21:24:55.369Z,2.21
2023-12-17T21:27:58.007Z,2.29
2023-12-17T21:31:00.585Z,2.22
2023-12-17T21:34:03.198Z,2.28
2023-12-17T21:37:05.781Z,2.36
2023-12-17T21:40:08.779Z,2.54
2023-12-17T21:43:11.157Z,2.56
2023-12-17T21:46:14.774Z,2.57
2023-12-17T21:49:17.990Z,2.58
2023-12-17T21:52:29.723Z,2.65
2023-12-17T21:55:35.552Z,2.43
2023-12-17T21:58:38.073Z,2.61
2023-12-17T22:01:40.726Z,2.54
2023-12-17T22:04:43.387Z,2.48
2023-12-17T22:07:46.303Z,2.55
2023-12-17T22:10:48.835Z,2.21
2023-12-17T22:13:51.258Z,2.37
2023-12-17T22:16:54.005Z,2.27
2023-12-17T22:19:56.466Z,2.57
2023-12-17T22:23:03.354Z,2.62
2023-12-17T22:26:05.811Z,2.62
2023-12-17T22:29:08.198Z,2.60
2023-12-17T22:32:10.689Z,2.46
2023-12-17T22:35:13.163Z,2.41
2023-12-17T22:38:15.570Z,2.37
2023-12-17T22:41:18.008Z,2.27
2023-12-17T22:44:21.092Z,2.46
2023-12-17T22:47:29.736Z,2.42
2023-12-17T22:50:32.712Z,2.49
2023-12-17T22:53:35.097Z,2.55
2023-12-17T22:56:37.954Z,2.44
2023-12-17T22:59:40.423Z,2.39
2023-12-17T23:02:42.813Z,2.54
2023-12-17T23:05:45.221Z,2.41
2023-12-17T23:08:47.919Z,2.39
2023-12-17T23:11:50.326Z,2.50
2023-12-17T23:14:53.004Z,2.40
2023-12-17T23:17:55.433Z,2.44
2023-12-17T23:20:58.341Z,2.61
2023-12-17T23:24:01.406Z,2.64
2023-12-17T23:27:04.299Z,2.41
2023-12-17T23:30:07.764Z,2.61
2023-12-17T23:33:10.398Z,2.54
2023-12-17T23:36:13.037Z,2.39
2023-12-17T23:39:15.469Z,2.36
2023-12-17T23:42:17.931Z,2.43
2023-12-17T23:45:20.439Z,2.45
2023-12-17T23:48:22.992Z,2.41
2023-12-17T23:51:25.481Z,2.54
2023-12-17T23:54:27.942Z,2.69
2023-12-17T23:57:30.671Z,2.73
